Latest Weather Observations for Ben Nevis

IDV60801

Issued at 6:35 pm EST Friday 25 July 2014 (issued every 30 minutes, with the page automatically refreshed every 10 minutes)

About weather observations | Map of weather stations | Latest weather observations for VIC | Other Formats
Station Details ID: 079101 Name: BEN NEVIS Lat: -37.23 Lon: 143.20 Height: 875.0 m
Data from the previous 72 hours. | See also: Recent months at Ben Nevis
Date/Time
EST
Temp
°C
App
Temp
°C
Dew
Point
Rel
Hum
%
Delta-T
°C
Wind Press
QNH
hPa
Press
MSL
hPa
Rain
since 9 am
mm
Dir
 
Spd
km/h
Gust
km/h
Spd
kts
Gust
kts
25/06:30pm 6.8 3.9 6.7 99 0.0 NW 11 20 6 11 - - 3.0
25/06:00pm 6.9 4.5 6.8 99 0.0 WNW 9 20 5 11 - - 3.0
25/05:30pm 7.0 4.6 6.9 99 0.0 NW 9 20 5 11 - - 3.0
25/05:00pm 7.5 5.2 7.4 99 0.0 N 9 17 5 9 - - 3.0
25/04:30pm 7.2 4.1 7.1 99 0.0 N 13 24 7 13 - - 2.4
25/04:00pm 7.1 4.3 7.0 99 0.0 N 11 20 6 11 - - 0.8
25/03:30pm 7.1 3.6 7.0 99 0.0 N 15 24 8 13 - - 0.8
25/03:00pm 7.0 3.8 6.9 99 0.0 N 13 24 7 13 - - 0.8
25/02:30pm 6.9 3.7 6.8 99 0.0 NNW 13 32 7 17 - - 0.8
25/02:00pm 6.8 3.9 6.7 99 0.0 N 11 22 6 12 - - 0.8
25/01:30pm 6.8 3.6 6.7 99 0.0 N 13 26 7 14 - - 0.8
25/01:00pm 6.7 3.4 6.6 99 0.0 NNW 13 24 7 13 - - 0.8
25/12:30pm 6.7 3.4 6.6 99 0.0 N 13 32 7 17 - - 0.6
25/12:00pm 6.5 2.4 6.4 99 0.0 N 17 30 9 16 - - 0.6
25/11:30am 6.4 2.7 6.3 99 0.0 N 15 30 8 16 - - 0.6
25/11:00am 6.2 2.1 6.1 99 0.0 NNW 17 37 9 20 - - 0.6
25/10:30am 6.2 1.7 6.1 99 0.0 NNW 19 28 10 15 - - 0.6
25/10:00am 6.1 2.0 6.0 99 0.0 N 17 30 9 16 - - 0.6
25/09:30am 6.0 1.8 5.9 99 0.0 N 17 30 9 16 - - 0.2
25/09:00am 6.0 1.5 5.9 99 0.0 N 19 39 10 21 - - 6.2
25/08:30am 5.9 1.7 5.8 99 0.0 NNW 17 28 9 15 - - 6.2
25/08:00am 6.0 1.8 5.9 99 0.0 N 17 28 9 15 - - 6.2
25/07:30am 6.0 1.8 5.9 99 0.0 N 17 30 9 16 - - 6.2
25/07:00am 6.0 1.8 5.9 99 0.0 NNW 17 30 9 16 - - 6.2
25/06:30am 6.0 1.8 5.9 99 0.0 N 17 30 9 16 - - 6.2
25/06:00am 5.9 1.3 5.8 99 0.0 NNW 19 32 10 17 - - 6.2
25/05:30am 6.2 2.1 6.1 99 0.0 N 17 37 9 20 - - 6.0
25/05:00am 6.4 2.3 6.3 99 0.0 N 17 32 9 17 - - 5.0
25/04:30am 6.6 2.6 6.5 99 0.0 N 17 32 9 17 - - 3.6
25/04:00am 6.7 2.3 6.6 99 0.0 N 19 41 10 22 - - 3.6
25/03:30am 6.7 2.7 6.6 99 0.0 N 17 28 9 15 - - 3.4
25/03:00am 6.7 2.3 6.6 99 0.0 N 19 30 10 16 - - 3.4
25/02:30am 6.7 2.3 6.6 99 0.0 N 19 32 10 17 - - 3.4
25/02:00am 6.8 2.8 6.7 99 0.0 N 17 33 9 18 - - 3.4
25/01:30am 6.8 1.9 6.7 99 0.0 N 22 41 12 22 - - 3.4
25/01:00am 6.7 2.1 6.6 99 0.0 N 20 37 11 20 - - 3.2
25/12:30am 6.6 1.6 6.5 99 0.0 N 22 35 12 19 - - 3.2
25/12:00am 6.5 1.1 6.4 99 0.0 N 24 41 13 22 - - 3.2
 
Date/Time
EST
Temp
°C
App
Temp
°C
Dew
Point
Rel
Hum
%
Delta-T
°C
Wind Press
QNH
hPa
Press
MSL
hPa
Rain
since 9 am
mm
Dir
 
Spd
km/h
Gust
km/h
Spd
kts
Gust
kts
24/11:30pm 6.6 0.9 6.5 99 0.0 N 26 44 14 24 - - 3.2
24/11:00pm 6.5 1.9 6.4 99 0.0 N 20 44 11 24 - - 3.2
24/10:30pm 6.5 1.1 6.4 99 0.0 N 24 41 13 22 - - 3.2
24/10:00pm 6.4 1.8 6.3 99 0.0 N 20 33 11 18 - - 3.2
24/09:30pm 6.4 0.6 6.3 99 0.0 N 26 43 14 23 - - 3.2
24/09:00pm 6.3 0.1 6.2 99 0.0 N 28 43 15 23 - - 2.4
24/08:31pm 6.4 -0.5 6.3 99 0.0 NNE 32 50 17 27 - - 1.8
24/08:30pm 6.5 -0.6 6.4 99 0.0 N 33 50 18 27 - - 1.6
24/08:00pm 6.3 -0.3 6.2 99 0.0 N 30 50 16 27 - - 1.6
24/07:30pm 6.2 -0.8 6.1 99 0.0 NNE 32 50 17 27 - - 1.6
24/07:00pm 6.1 -1.1 6.0 99 0.0 NNE 33 52 18 28 - - 1.6
24/06:59pm 6.1 -1.1 6.0 99 0.0 NNE 33 52 18 28 - - 1.6
24/06:30pm 6.1 -1.5 6.0 99 0.0 NNE 35 50 19 27 - - 1.4
24/06:18pm 6.3 -1.2 6.2 99 0.0 NNE 35 54 19 29 - - 1.0
24/06:00pm 6.1 -2.2 6.0 99 0.0 NNE 39 54 21 29 - - 0.6
24/05:38pm 6.1 -1.9 5.8 98 0.1 NNE 37 57 20 31 - - 0.4
24/05:30pm 6.1 -1.5 5.8 98 0.1 NNE 35 52 19 28 - - 0.4
24/05:00pm 6.0 -2.0 5.7 98 0.1 NNE 37 56 20 30 - - 0.4
24/04:47pm 5.9 -1.7 5.6 98 0.1 NNE 35 54 19 29 - - 0.4
24/04:30pm 5.9 -1.8 5.5 97 0.2 NNE 35 52 19 28 - - 0.4
24/04:00pm 5.9 -2.2 5.3 96 0.3 NNE 37 56 20 30 - - 0.4
24/03:37pm 5.7 -3.2 5.3 97 0.2 NNE 41 59 22 32 - - 0.4
24/03:30pm 5.7 -3.5 5.3 97 0.2 NNE 43 57 23 31 - - 0.4
24/03:00pm 5.4 -3.5 5.0 97 0.2 NNE 41 65 22 35 - - 0.4
24/02:30pm 5.4 -3.2 4.8 96 0.3 NNE 39 57 21 31 - - 0.4
24/02:00pm 5.6 -3.1 4.2 91 0.6 NNE 39 61 21 33 - - 0.4
24/01:30pm 5.7 -2.9 4.7 93 0.5 NNE 39 59 21 32 - - 0.4
24/01:05pm 5.3 -2.4 5.2 99 0.0 NNE 35 54 19 29 - - 0.4
24/01:00pm 5.1 -2.3 5.0 99 0.0 NNE 33 50 18 27 - - 0.4
24/12:30pm 5.4 -2.7 5.3 99 0.0 NNE 37 57 20 31 - - 0.4
24/12:00pm 5.2 -3.7 5.1 99 0.0 NNE 41 61 22 33 - - 0.4
24/11:30am 4.9 -4.1 4.8 99 0.0 NNE 41 59 22 32 - - 0.4
24/11:00am 5.0 -4.3 4.9 99 0.0 NNE 43 65 23 35 - - 0.4
24/10:30am 5.0 -4.3 4.9 99 0.0 NNE 43 61 23 33 - - 0.4
24/10:00am 4.8 -4.2 4.7 99 0.0 NNE 41 61 22 33 - - 0.4
24/09:34am 4.7 -2.6 4.6 99 0.0 NNE 32 52 17 28 - - 0.2
24/09:30am 4.6 -2.9 4.5 99 0.0 NNE 33 48 18 26 - - 0.2
24/09:10am 4.5 -4.1 4.4 99 0.0 NNE 39 59 21 32 - - 0.0
24/09:00am 4.5 -4.1 4.4 99 0.0 NNE 39 56 21 30 - - 3.2
24/08:41am 4.5 -4.1 4.4 99 0.0 NNE 39 70 21 38 - - 2.8
24/08:30am 4.4 -2.9 4.3 99 0.0 NNE 32 50 17 27 - - 2.6
24/08:27am 4.4 -2.9 4.3 99 0.0 NNE 32 50 17 27 - - 2.6
24/08:00am 4.3 -3.1 4.2 99 0.0 NNE 32 44 17 24 - - 2.0
24/07:35am 4.7 -2.6 4.6 99 0.0 NNE 32 57 17 31 - - 1.6
24/07:30am 4.7 -2.6 4.6 99 0.0 NNE 32 46 17 25 - - 1.6
24/07:06am 4.8 -2.5 4.7 99 0.0 NNE 32 50 17 27 - - 1.4
24/07:00am 4.7 -2.6 4.6 99 0.0 NNE 32 48 17 26 - - 1.4
24/06:35am 4.8 -2.5 4.7 99 0.0 NNE 32 50 17 27 - - 1.4
24/06:30am 4.8 -2.1 4.7 99 0.0 NNE 30 46 16 25 - - 1.4
24/06:00am 4.7 -2.6 4.6 99 0.0 NNE 32 50 17 27 - - 1.4
24/05:56am 4.6 -2.7 4.5 99 0.0 NNE 32 50 17 27 - - 1.2
24/05:30am 4.5 -3.0 4.4 99 0.0 NNE 33 50 18 27 - - 1.2
24/05:00am 4.7 -2.6 4.4 98 0.1 NNE 32 50 17 27 - - 1.0
24/04:30am 5.0 -2.5 4.7 98 0.1 NNE 33 56 18 30 - - 0.8
24/04:00am 5.5 -2.0 4.3 92 0.5 N 33 52 18 28 - - 0.2
24/03:31am 5.3 -2.8 3.2 86 0.9 NNE 35 54 19 29 - - 0.0
24/03:30am 5.4 -3.1 3.3 86 0.9 NNE 37 54 20 29 - - 0.0
24/03:00am 5.5 -2.9 3.5 87 0.9 NNE 37 61 20 33 - - 0.0
24/02:30am 5.3 -2.8 3.0 85 1.0 NNE 35 56 19 30 - - 0.0
24/02:00am 5.2 -2.0 2.9 85 1.0 NNE 30 48 16 26 - - 0.0
24/01:30am 5.3 -1.8 3.6 89 0.8 NNE 30 52 16 28 - - 0.0
24/01:00am 4.2 -3.3 3.5 95 0.3 NNE 32 52 17 28 - - 0.0
24/12:44am 3.9 -2.9 3.3 96 0.3 NE 28 46 15 25 - - 0.0
24/12:30am 4.2 -2.9 3.6 96 0.3 NE 30 46 16 25 - - 0.0
24/12:22am 4.3 -2.3 4.0 98 0.1 NE 28 46 15 25 - - 0.0
24/12:00am 3.8 -2.2 3.2 96 0.3 NE 24 35 13 19 - - 0.0
 
Date/Time
EST
Temp
°C
App
Temp
°C
Dew
Point
Rel
Hum
%
Delta-T
°C
Wind Press
QNH
hPa
Press
MSL
hPa
Rain
since 9 am
mm
Dir
 
Spd
km/h
Gust
km/h
Spd
kts
Gust
kts
23/11:30pm 4.1 -1.8 3.7 97 0.2 NE 24 37 13 20 - - 0.0
23/11:00pm 3.5 -2.1 3.2 98 0.1 NE 22 35 12 19 - - 0.0
23/10:30pm 3.3 -2.8 2.9 97 0.2 NE 24 33 13 18 - - 0.0
23/10:00pm 3.1 -3.0 2.5 96 0.3 NE 24 33 13 18 - - 0.0
23/09:30pm 3.2 -2.6 2.3 94 0.4 NE 22 37 12 20 - - 0.0
23/09:00pm 3.6 -1.9 1.8 88 0.7 NE 20 32 11 17 - - 0.0
23/08:30pm 2.9 -2.7 1.4 90 0.6 NE 20 32 11 17 - - 0.0
23/08:00pm 2.9 -2.5 1.0 87 0.8 NE 19 30 10 16 - - 0.0
23/07:30pm 3.3 -2.5 -0.3 77 1.4 NE 20 28 11 15 - - 0.0
23/07:00pm 3.8 -2.3 -2.2 65 2.3 NNE 20 30 11 16 - - 0.0
23/06:30pm 4.1 -1.9 -3.2 59 2.7 NNE 19 35 10 19 - - 0.0
23/06:00pm 4.1 -2.2 -3.9 56 2.9 NNE 20 30 11 16 - - 0.0
23/05:30pm 4.0 -2.6 -3.5 58 2.7 NNE 22 33 12 18 - - 0.0
23/05:00pm 3.6 -2.4 -1.2 71 1.9 NNE 20 30 11 16 - - 0.0
23/04:30pm 4.2 -2.4 -2.9 60 2.6 NNE 22 33 12 18 - - 0.0
23/04:00pm 4.0 -1.9 -2.0 65 2.3 NNE 19 30 10 16 - - 0.0
23/03:30pm 5.1 -0.9 -1.6 62 2.6 NNE 20 32 11 17 - - 0.0
23/03:00pm 4.3 -1.6 -0.5 71 1.9 NNE 20 30 11 16 - - 0.0
23/02:30pm 5.2 1.3 1.3 76 1.6 NNE 11 20 6 11 - - 0.0
23/02:00pm 4.6 -0.8 1.1 78 1.4 NNE 19 30 10 16 - - 0.0
23/01:30pm 4.9 -1.2 -2.0 61 2.6 NNE 20 30 11 16 - - 0.0
23/01:00pm 5.6 -0.4 -3.0 54 3.2 NNE 19 28 10 15 - - 0.0
23/12:30pm 5.8 0.6 -3.0 53 3.3 NE 15 20 8 11 - - 0.0
23/12:00pm 5.4 -0.3 -3.6 52 3.3 NE 17 24 9 13 - - 0.0
23/11:30am 5.3 0.2 -2.3 58 2.9 NE 15 28 8 15 - - 0.0
23/11:00am 5.5 -0.4 -2.6 56 3.1 NNE 19 24 10 13 - - 0.0
23/10:30am 6.4 0.5 -5.6 42 4.3 NNE 17 28 9 15 - - 0.0
23/10:00am 5.6 -0.1 -3.5 52 3.4 NE 17 24 9 13 - - 0.0
23/09:30am 5.4 -0.5 -5.3 46 3.8 NNE 17 26 9 14 - - 0.0
23/09:00am 4.8 -0.4 -2.5 59 2.8 NNE 15 20 8 11 - - 0.0
23/08:30am 4.8 -0.2 -1.4 64 2.4 NNE 15 24 8 13 - - 0.0
23/08:00am 4.3 -0.9 -0.1 73 1.8 NNE 17 26 9 14 - - 0.0
23/07:30am 3.9 -0.9 0.2 77 1.5 NNE 15 20 8 11 - - 0.0
23/07:00am 4.0 -0.5 -0.4 73 1.7 NNE 13 20 7 11 - - 0.0
23/06:30am 3.9 -0.6 -0.3 74 1.7 NNE 13 17 7 9 - - 0.0
23/06:00am 4.3 -0.1 0.6 77 1.5 NNE 13 19 7 10 - - 0.0
23/05:30am 3.9 -0.5 0.4 78 1.4 NNE 13 20 7 11 - - 0.0
23/05:00am 4.0 -0.5 -0.6 72 1.8 NNE 13 17 7 9 - - 0.0
23/04:30am 4.1 -0.6 -1.7 66 2.2 NNE 13 19 7 10 - - 0.0
23/04:00am 4.4 -0.4 -2.2 62 2.5 NNE 13 20 7 11 - - 0.0
23/03:30am 4.3 -0.4 -2.1 63 2.4 NNE 13 20 7 11 - - 0.0
23/03:00am 4.4 -0.3 -2.0 63 2.4 NNE 13 20 7 11 - - 0.0
23/02:30am 4.8 -0.3 -2.1 61 2.6 NNE 15 20 8 11 - - 0.0
23/02:00am 5.5 0.3 -3.1 54 3.2 NNE 15 20 8 11 - - 0.0
23/01:30am 5.2 0.5 1.0 74 1.7 NNE 15 22 8 12 - - 0.0
23/01:00am 5.4 0.3 -1.7 60 2.8 NNE 15 20 8 11 - - 0.0
23/12:30am 5.1 0.0 -5.5 46 3.7 NNE 13 20 7 11 - - 0.0
23/12:00am 4.9 -0.2 -1.8 62 2.6 NE 15 19 8 10 - - 0.0
 
Date/Time
EST
Temp
°C
App
Temp
°C
Dew
Point
Rel
Hum
%
Delta-T
°C
Wind Press
QNH
hPa
Press
MSL
hPa
Rain
since 9 am
mm
Dir
 
Spd
km/h
Gust
km/h
Spd
kts
Gust
kts
22/11:30pm 5.0 -0.2 -3.0 56 3.0 NE 15 20 8 11 - - 0.0
22/11:00pm 5.2 -0.2 -4.4 50 3.5 NE 15 20 8 11 - - 0.0
22/10:30pm 4.6 0.5 2.0 83 1.1 N 13 15 7 8 - - 0.0
22/10:00pm 4.0 0.0 0.2 76 1.5 N 11 13 6 7 - - 0.0
22/09:30pm 4.1 0.0 -0.1 74 1.7 N 11 11 6 6 - - 0.0
22/09:00pm 4.9 1.3 0.7 74 1.7 N 9 11 5 6 - - 0.0
22/08:30pm 4.9 0.9 0.7 74 1.7 N 11 11 6 6 - - 0.0
22/08:00pm 4.8 0.6 -0.8 67 2.2 N 11 13 6 7 - - 0.0
22/07:30pm 5.1 1.0 0.1 70 2.0 N 11 13 6 7 - - 0.0
22/07:00pm 5.3 1.7 0.7 72 1.9 N 9 13 5 7 - - 0.0

Other Formats:

Comma delimited format used in spreadsheet applications
http://www.bom.gov.au/fwo/IDV60801/IDV60801.94835.axf

JavaScript Object Notation format (JSON) in row-major order
http://www.bom.gov.au/fwo/IDV60801/IDV60801.94835.json